Time;durP1;ratioP1;P1;durP2;ratioP2;P2;SDS_P1;SDS_P2;PMS_P1;PMS_P2;Temp;Humidity;BMP_temperature;BMP_pressure;BME280_temperature;BME280_humidity;BME280_pressure;Samples;Min_cycle;Max_cycle;Signal;HPM_P1;HPM_P2
2021/01/29 00:00:24;;;;;;;17.00;2.00;;;10.40;99.90;;;;;;2113262;28;20506;-70
2021/01/29 00:01:26;;;;;;;23.45;3.38;;;10.40;99.90;;;;;;2105846;28;20403;-71
2021/01/29 00:02:26;;;;;;;15.95;3.00;;;10.50;99.90;;;;;;2111538;28;20031;-71
2021/01/29 00:03:28;;;;;;;20.80;2.78;;;10.50;99.90;;;;;;2111831;28;20028;-70
2021/01/29 00:04:29;;;;;;;23.10;3.17;;;10.50;99.90;;;;;;2119103;27;20027;-71
2021/01/29 00:05:40;;;;;;;18.98;3.20;;;10.50;99.90;;;;;;2118784;27;20035;-71
2021/01/29 00:06:41;;;;;;;17.70;2.38;;;10.50;99.90;;;;;;2110076;28;20024;-71
2021/01/29 00:07:43;;;;;;;22.77;3.05;;;10.50;99.90;;;;;;2110371;28;20027;-70
2021/01/29 00:08:44;;;;;;;21.80;2.50;;;10.50;99.90;;;;;;2112322;28;20024;-70
2021/01/29 00:09:44;;;;;;;25.75;2.33;;;10.50;99.90;;;;;;2121055;27;20118;-70
2021/01/29 00:10:45;;;;;;;19.40;2.67;;;10.50;99.90;;;;;;2112339;28;20016;-73
2021/01/29 00:11:47;;;;;;;18.38;2.55;;;10.50;99.90;;;;;;2112738;28;20495;-70
2021/01/29 00:12:48;;;;;;;17.10;2.10;;;10.50;99.90;;;;;;2105695;28;20012;-71
2021/01/29 00:13:49;;;;;;;16.42;2.47;;;10.50;99.90;;;;;;2112428;28;20038;-70
2021/01/29 00:14:49;;;;;;;18.02;2.58;;;10.50;99.90;;;;;;2112655;28;20047;-71
2021/01/29 00:15:51;;;;;;;14.68;2.10;;;10.60;99.90;;;;;;2107482;28;20872;-71
2021/01/29 00:16:52;;;;;;;;;;;10.60;99.90;;;;;;2114410;28;20020;-70
2021/01/29 00:17:53;;;;;;;17.05;2.33;;;10.50;99.90;;;;;;2106780;28;19947;-70
2021/01/29 00:18:53;;;;;;;14.38;2.40;;;10.60;99.90;;;;;;2104451;28;20048;-71
2021/01/29 00:19:54;;;;;;;13.23;2.33;;;10.60;99.90;;;;;;2113381;28;20015;-71
2021/01/29 00:20:55;;;;;;;17.38;2.53;;;10.70;99.90;;;;;;2112913;28;20023;-71
2021/01/29 00:21:55;;;;;;;16.95;1.88;;;10.70;99.90;;;;;;2097502;28;20029;-71
2021/01/29 00:22:57;;;;;;;17.90;2.15;;;10.70;99.90;;;;;;2109896;28;20660;-71
2021/01/29 00:23:58;;;;;;;14.88;2.10;;;10.70;99.90;;;;;;2112763;28;20035;-71
2021/01/29 00:24:59;;;;;;;19.33;2.40;;;10.80;99.90;;;;;;2104455;28;20067;-71
2021/01/29 00:25:59;;;;;;;24.20;2.85;;;10.70;99.90;;;;;;2106333;28;20024;-71
2021/01/29 00:27:00;;;;;;;22.85;2.35;;;10.70;99.90;;;;;;2113830;28;20028;-70
2021/01/29 00:28:01;;;;;;;18.88;3.38;;;10.70;99.90;;;;;;2112548;28;20024;-70
2021/01/29 00:29:02;;;;;;;23.90;3.00;;;10.70;99.90;;;;;;2111121;28;20035;-70
2021/01/29 00:30:05;;;;;;;23.05;2.80;;;10.70;99.90;;;;;;2112508;28;20392;-70
2021/01/29 00:31:06;;;;;;;20.88;3.85;;;10.70;99.90;;;;;;2100569;28;20032;-70
2021/01/29 00:32:06;;;;;;;23.60;2.30;;;10.70;99.90;;;;;;2112029;28;20031;-69
2021/01/29 00:33:10;;;;;;;31.10;3.33;;;10.70;99.90;;;;;;2112838;28;20527;-70
2021/01/29 00:34:10;;;;;;;23.65;2.80;;;10.60;99.90;;;;;;2105391;28;20028;-70
2021/01/29 00:35:12;;;;;;;38.72;3.38;;;10.60;99.90;;;;;;2106075;28;20111;-70
2021/01/29 00:36:13;;;;;;;25.42;3.33;;;10.60;99.90;;;;;;2107424;28;20027;-70
2021/01/29 00:37:13;;;;;;;25.35;4.38;;;10.60;99.90;;;;;;2113835;28;20047;-71
2021/01/29 00:38:14;;;;;;;39.55;5.63;;;10.50;99.90;;;;;;2111977;28;20019;-70
2021/01/29 00:39:15;;;;;;;37.58;3.75;;;10.50;99.90;;;;;;2113476;28;20479;-70
2021/01/29 00:40:16;;;;;;;44.28;3.95;;;10.50;99.90;;;;;;2106937;28;20048;-71
2021/01/29 00:41:21;;;;;;;42.58;4.72;;;10.40;99.90;;;;;;2113939;28;20035;-71
2021/01/29 00:42:21;;;;;;;28.23;2.75;;;10.40;99.90;;;;;;2112735;28;20024;-71
2021/01/29 00:43:22;;;;;;;27.48;3.55;;;10.30;99.90;;;;;;2104666;28;20031;-71
2021/01/29 00:44:23;;;;;;;35.40;3.60;;;10.30;99.90;;;;;;2104785;28;20077;-71
2021/01/29 00:45:26;;;;;;;35.75;4.25;;;10.30;99.90;;;;;;2113179;28;20035;-72
2021/01/29 00:46:27;;;;;;;37.58;3.85;;;10.30;99.90;;;;;;2113088;28;20454;-72
2021/01/29 00:47:28;;;;;;;32.95;3.38;;;10.30;99.90;;;;;;2112664;28;20028;-72
2021/01/29 00:48:29;;;;;;;34.10;2.90;;;10.30;99.90;;;;;;2112897;28;20492;-71
2021/01/29 00:49:30;;;;;;;28.63;3.50;;;10.30;99.90;;;;;;2113114;28;20625;-71
2021/01/29 00:50:31;;;;;;;28.33;3.55;;;10.30;99.90;;;;;;2107594;28;20028;-71
2021/01/29 00:51:31;;;;;;;29.98;3.30;;;10.30;99.90;;;;;;2112190;28;20031;-71
2021/01/29 00:52:32;;;;;;;33.10;3.70;;;10.30;99.90;;;;;;2112394;28;20022;-71
2021/01/29 00:53:33;;;;;;;33.85;3.88;;;10.30;99.90;;;;;;2112928;28;20081;-71
2021/01/29 00:54:34;;;;;;;32.42;3.95;;;10.30;99.90;;;;;;2096036;28;20018;-71
2021/01/29 00:55:35;;;;;;;31.33;4.15;;;10.30;99.90;;;;;;2106411;28;20024;-71
2021/01/29 00:56:36;;;;;;;31.30;3.40;;;10.30;99.90;;;;;;2113186;28;20073;-71
2021/01/29 00:57:36;;;;;;;35.53;4.68;;;10.30;99.90;;;;;;2112318;28;20228;-71
2021/01/29 00:58:37;;;;;;;31.33;3.25;;;10.30;99.90;;;;;;2113152;28;20012;-71
2021/01/29 00:59:38;;;;;;;26.98;3.17;;;10.30;99.90;;;;;;2104596;28;20595;-71
2021/01/29 01:00:38;;;;;;;32.72;4.05;;;10.40;99.90;;;;;;2104775;28;20020;-70
2021/01/29 01:01:39;;;;;;;27.45;3.95;;;10.30;99.90;;;;;;2106180;28;20077;-71
2021/01/29 01:02:40;;;;;;;36.45;3.78;;;10.40;99.90;;;;;;2104981;28;20646;-71
2021/01/29 01:03:41;;;;;;;34.30;3.80;;;10.40;99.90;;;;;;2113479;28;20155;-71
2021/01/29 01:04:41;;;;;;;30.25;4.05;;;10.40;99.90;;;;;;2113187;28;20065;-71
2021/01/29 01:05:43;;;;;;;43.90;5.47;;;10.40;99.90;;;;;;2117089;28;20064;-71
2021/01/29 01:06:43;;;;;;;38.33;4.05;;;10.40;99.90;;;;;;2112561;28;20016;-71
2021/01/29 01:07:45;;;;;;;44.17;5.00;;;10.40;99.90;;;;;;2113434;27;20031;-72
2021/01/29 01:08:45;;;;;;;55.70;5.90;;;10.40;99.90;;;;;;2112955;28;20024;-72
2021/01/29 01:09:46;;;;;;;46.78;5.28;;;10.40;99.90;;;;;;2105392;28;20103;-72
2021/01/29 01:10:47;;;;;;;34.35;4.30;;;10.40;99.90;;;;;;2105918;28;20099;-71
2021/01/29 01:11:48;;;;;;;33.80;4.43;;;10.30;99.90;;;;;;2105777;28;20032;-70
2021/01/29 01:12:49;;;;;;;42.70;4.63;;;10.30;99.90;;;;;;2107533;28;20795;-72
2021/01/29 01:14:00;;;;;;;43.38;6.38;;;10.30;99.90;;;;;;2107111;28;20023;-71
2021/01/29 01:15:15;;;;;;;44.17;4.97;;;10.20;99.90;;;;;;2113754;28;20019;-71
2021/01/29 01:16:15;;;;;;;49.10;6.03;;;10.20;99.90;;;;;;2119471;27;20022;-71
2021/01/29 01:17:16;;;;;;;44.63;5.05;;;10.10;99.90;;;;;;2114610;28;20032;-71
2021/01/29 01:18:17;;;;;;;49.40;6.20;;;10.10;99.90;;;;;;2108159;28;20048;-71
2021/01/29 01:19:17;;;;;;;44.67;5.38;;;10.10;99.90;;;;;;2107149;28;20142;-70
2021/01/29 01:20:20;;;;;;;40.58;4.65;;;10.00;99.90;;;;;;2106182;28;20027;-70
2021/01/29 01:21:21;;;;;;;37.22;4.90;;;10.00;99.90;;;;;;2116156;27;20030;-71
2021/01/29 01:22:22;;;;;;;47.90;5.75;;;9.90;99.90;;;;;;2106685;28;20706;-71
2021/01/29 01:23:22;;;;;;;34.60;5.05;;;9.90;99.90;;;;;;2113997;28;20032;-71
2021/01/29 01:24:23;;;;;;;35.15;4.93;;;9.80;99.90;;;;;;2115165;27;20575;-70
2021/01/29 01:25:24;;;;;;;46.00;4.93;;;9.80;99.90;;;;;;2113367;28;20368;-71
2021/01/29 01:26:25;;;;;;;42.03;6.35;;;9.80;99.90;;;;;;2105248;28;20024;-71
2021/01/29 01:27:26;;;;;;;47.00;6.25;;;9.70;99.90;;;;;;2114618;28;20035;-71
2021/01/29 01:28:27;;;;;;;49.42;6.20;;;9.70;99.90;;;;;;2113294;28;20024;-70
2021/01/29 01:29:27;;;;;;;54.20;6.03;;;9.70;99.90;;;;;;2114319;28;20058;-70
2021/01/29 01:30:39;;;;;;;38.42;5.30;;;9.70;99.90;;;;;;2114668;27;20436;-71
2021/01/29 01:31:40;;;;;;;50.87;6.50;;;9.70;99.90;;;;;;2118356;27;20116;-71
2021/01/29 01:32:41;;;;;;;56.72;6.95;;;9.70;99.90;;;;;;2115159;28;20253;-70
2021/01/29 01:33:41;;;;;;;56.22;6.53;;;9.60;99.90;;;;;;2113621;28;20054;-70
2021/01/29 01:34:42;;;;;;;64.60;6.88;;;9.60;99.90;;;;;;2113324;28;20514;-71
2021/01/29 01:35:43;;;;;;;50.08;6.80;;;9.60;99.90;;;;;;2106618;28;20527;-71
2021/01/29 01:36:43;;;;;;;49.67;7.70;;;9.50;99.90;;;;;;2111307;28;20506;-70
2021/01/29 01:37:44;;;;;;;62.25;7.40;;;9.50;99.90;;;;;;2113510;28;20026;-71
2021/01/29 01:38:44;;;;;;;52.92;6.30;;;9.40;99.90;;;;;;2113876;28;20027;-72
2021/01/29 01:39:45;;;;;;;62.20;7.18;;;9.40;99.90;;;;;;2108050;28;20028;-71
2021/01/29 01:40:46;;;;;;;66.70;8.07;;;9.50;99.90;;;;;;2122688;27;20106;-70
2021/01/29 01:41:47;;;;;;;65.45;7.20;;;9.50;99.90;;;;;;2113562;28;20545;-70
2021/01/29 01:42:47;;;;;;;67.57;8.57;;;9.60;99.90;;;;;;2105991;28;20017;-70
2021/01/29 01:43:48;;;;;;;66.95;8.30;;;9.60;99.90;;;;;;2109338;28;20110;-70
2021/01/29 01:44:49;;;;;;;63.20;7.90;;;9.60;99.90;;;;;;2110754;28;20022;-70
2021/01/29 01:45:56;;;;;;;61.85;8.05;;;9.60;99.90;;;;;;2107474;28;20020;-71
2021/01/29 01:47:01;;;;;;;56.17;8.23;;;9.70;99.90;;;;;;2111016;28;20491;-70
2021/01/29 01:48:10;;;;;;;58.38;7.72;;;9.70;99.90;;;;;;2115220;28;20044;-70
2021/01/29 01:49:14;;;;;;;60.38;8.32;;;9.70;99.90;;;;;;2114527;28;20019;-71
2021/01/29 01:50:24;;;;;;;78.45;9.40;;;9.70;99.90;;;;;;2113085;28;20031;-71
2021/01/29 01:51:35;;;;;;;62.38;8.73;;;9.70;99.90;;;;;;2114069;28;20461;-70
2021/01/29 01:52:37;;;;;;;69.82;8.65;;;9.70;99.90;;;;;;2118807;27;20015;-71
2021/01/29 01:53:42;;;;;;;82.05;9.55;;;9.70;99.90;;;;;;2113087;28;20667;-71
2021/01/29 01:54:48;;;;;;;79.97;9.88;;;9.70;99.90;;;;;;2107859;28;20094;-71
2021/01/29 01:55:57;;;;;;;81.95;9.70;;;9.70;99.90;;;;;;2108503;28;20629;-70
2021/01/29 01:57:00;;;;;;;75.85;10.07;;;9.70;99.90;;;;;;2106537;28;20044;-70
2021/01/29 01:58:02;;;;;;;67.97;8.80;;;9.70;99.90;;;;;;2115027;28;20107;-70
2021/01/29 01:59:07;;;;;;;55.08;7.45;;;9.70;99.90;;;;;;2114036;28;20086;-70
2021/01/29 02:00:15;;;;;;;75.95;8.25;;;9.70;99.90;;;;;;2113176;28;20034;-72
2021/01/29 02:01:18;;;;;;;59.08;7.97;;;9.80;99.90;;;;;;2110156;28;20558;-71
2021/01/29 02:02:24;;;;;;;72.45;8.88;;;9.80;99.90;;;;;;2108232;28;20026;-70
2021/01/29 02:03:29;;;;;;;76.88;8.60;;;9.80;99.90;;;;;;2106635;28;20107;-70
2021/01/29 02:04:35;;;;;;;68.93;7.25;;;9.80;99.90;;;;;;2112297;28;20107;-70
2021/01/29 02:05:39;;;;;;;66.13;7.00;;;9.80;99.90;;;;;;2114694;28;20683;-70
2021/01/29 02:07:01;;;;;;;66.78;8.25;;;9.80;99.90;;;;;;2114123;28;20032;-70
2021/01/29 02:08:08;;;;;;;52.08;6.35;;;9.90;99.90;;;;;;2106231;28;20020;-71
2021/01/29 02:09:10;;;;;;;57.92;6.90;;;9.90;99.90;;;;;;2111055;28;20024;-70
2021/01/29 02:10:11;;;;;;;53.08;6.68;;;9.90;99.90;;;;;;2114117;28;20126;-71
2021/01/29 02:11:20;;;;;;;57.40;7.60;;;9.90;99.90;;;;;;2113448;27;20036;-70
2021/01/29 02:12:20;;;;;;;65.78;8.13;;;9.90;99.90;;;;;;2113829;28;20019;-70
2021/01/29 02:13:21;;;;;;;61.88;5.93;;;9.90;99.90;;;;;;2114847;28;20467;-71
2021/01/29 02:14:22;;;;;;;57.90;7.50;;;9.90;99.90;;;;;;2114330;28;20053;-71
2021/01/29 02:15:26;;;;;;;72.55;8.68;;;9.90;99.90;;;;;;2114808;28;20020;-71
2021/01/29 02:17:02;;;;;;;50.45;6.57;;;9.90;99.90;;;;;;2105855;28;20020;-71
2021/01/29 02:18:20;;;;;;;58.97;7.63;;;9.90;99.90;;;;;;2087420;28;20041;-71
2021/01/29 02:19:26;;;;;;;53.65;7.40;;;9.90;99.90;;;;;;2112408;28;20143;-72
2021/01/29 02:20:54;;;;;;;72.68;8.18;;;9.80;99.90;;;;;;2105596;28;20028;-70
2021/01/29 02:22:32;;;;;;;62.22;7.25;;;9.90;99.90;;;;;;2106009;28;20020;-70
2021/01/29 02:23:51;;;;;;;66.10;9.52;;;9.90;99.90;;;;;;2087870;28;20582;-70
2021/01/29 02:25:17;;;;;;;55.75;7.43;;;9.90;99.90;;;;;;2088255;28;20027;-70
2021/01/29 02:26:40;;;;;;;54.92;6.88;;;9.90;99.90;;;;;;2108396;28;20044;-71
2021/01/29 02:27:53;;;;;;;58.38;7.63;;;9.90;99.90;;;;;;2111953;28;20442;-70
2021/01/29 02:29:00;;;;;;;;;;;9.90;99.90;;;;;;2114454;28;20499;-70
2021/01/29 02:30:31;;;;;;;58.47;6.82;;;9.90;99.90;;;;;;2105697;28;19954;-71
2021/01/29 02:32:09;;;;;;;55.60;7.03;;;9.90;99.90;;;;;;2111967;28;20023;-71
2021/01/29 02:33:25;;;;;;;71.22;6.75;;;9.90;99.90;;;;;;2111483;28;20020;-71
2021/01/29 02:34:44;;;;;;;65.97;8.65;;;9.90;99.90;;;;;;2109254;28;20028;-71
2021/01/29 02:36:04;;;;;;;55.22;6.97;;;9.90;99.90;;;;;;2106264;28;20388;-70
2021/01/29 02:37:39;;;;;;;66.60;8.10;;;9.90;99.90;;;;;;2113382;28;20027;-71
2021/01/29 02:39:12;;;;;;;54.42;6.68;;;9.90;99.90;;;;;;2114217;28;20042;-71
2021/01/29 02:40:16;;;;;;;56.60;7.30;;;9.90;99.90;;;;;;2106288;28;20024;-70
2021/01/29 02:41:37;;;;;;;73.30;9.68;;;9.90;99.90;;;;;;2105506;28;20024;-70
2021/01/29 02:42:50;;;;;;;66.57;8.57;;;9.90;99.90;;;;;;2110518;28;20035;-71
2021/01/29 02:44:09;;;;;;;;;;;9.90;99.90;;;;;;2109526;28;20015;-70
2021/01/29 02:45:31;;;;;;;73.43;8.07;;;9.90;99.90;;;;;;2112197;28;19903;-72
2021/01/29 02:46:43;;;;;;;70.32;8.38;;;9.90;99.90;;;;;;2111094;28;20027;-70
2021/01/29 02:47:55;;;;;;;68.88;7.75;;;9.90;99.90;;;;;;2107466;28;20117;-71
2021/01/29 02:49:02;;;;;;;66.88;8.57;;;9.90;99.90;;;;;;2109497;28;20034;-70
2021/01/29 02:50:24;;;;;;;62.28;8.02;;;9.90;99.90;;;;;;2114494;28;20028;-71
2021/01/29 02:52:00;;;;;;;69.53;8.05;;;9.90;99.90;;;;;;2105328;28;20034;-71
2021/01/29 02:53:30;;;;;;;67.72;11.05;;;9.90;99.90;;;;;;2107616;28;20030;-71
2021/01/29 02:54:52;;;;;;;75.28;8.38;;;9.90;99.90;;;;;;2110030;28;20073;-71
2021/01/29 02:56:17;;;;;;;72.13;8.17;;;9.90;99.90;;;;;;2110221;28;20016;-71
2021/01/29 02:57:41;;;;;;;65.65;8.25;;;9.80;99.90;;;;;;2110558;28;20317;-71
2021/01/29 02:59:22;;;;;;;60.15;7.28;;;9.80;99.90;;;;;;2113018;28;20023;-71
2021/01/29 03:00:32;;;;;;;72.55;9.50;;;9.80;99.90;;;;;;2098451;27;20158;-71
2021/01/29 03:01:42;;;;;;;64.25;8.40;;;9.80;99.90;;;;;;2106556;28;20063;-71
2021/01/29 03:02:46;;;;;;;65.25;7.97;;;9.80;99.90;;;;;;2106609;28;20030;-71
2021/01/29 03:04:08;;;;;;;74.20;9.85;;;9.90;99.90;;;;;;2113521;28;20020;-71
2021/01/29 03:05:26;;;;;;;56.55;7.07;;;9.90;99.90;;;;;;2106007;28;20099;-72
2021/01/29 03:06:46;;;;;;;69.18;7.60;;;9.90;99.90;;;;;;2108878;28;20064;-71
2021/01/29 03:08:02;;;;;;;53.28;6.85;;;9.90;99.90;;;;;;2118736;27;20028;-71
2021/01/29 03:09:44;;;;;;;66.57;7.20;;;10.00;99.90;;;;;;2114439;27;20576;-71
2021/01/29 03:10:56;;;;;;;58.17;6.97;;;10.00;99.90;;;;;;2112757;28;20023;-71
2021/01/29 03:12:02;;;;;;;62.03;8.57;;;10.00;99.90;;;;;;2114050;28;20019;-71
2021/01/29 03:13:14;;;;;;;60.60;6.80;;;10.00;99.90;;;;;;2112942;28;20035;-71
2021/01/29 03:14:18;;;;;;;57.63;8.00;;;10.00;99.90;;;;;;2113207;28;20099;-70
2021/01/29 03:15:28;;;;;;;67.35;9.18;;;10.00;99.90;;;;;;2112833;28;20479;-71
2021/01/29 03:16:47;;;;;;;68.25;8.75;;;10.00;99.90;;;;;;2105889;28;20081;-71
2021/01/29 03:18:07;;;;;;;60.05;6.93;;;10.00;99.90;;;;;;2105938;28;20020;-71
2021/01/29 03:19:18;;;;;;;56.90;7.45;;;10.00;99.90;;;;;;2104754;28;20070;-71
2021/01/29 03:20:35;;;;;;;70.82;9.23;;;10.00;99.90;;;;;;2105054;28;20016;-71
2021/01/29 03:21:39;;;;;;;46.28;8.02;;;10.00;99.90;;;;;;2113080;28;20130;-70
2021/01/29 03:23:09;;;;;;;62.88;8.65;;;10.00;99.90;;;;;;2104703;28;20020;-71
2021/01/29 03:24:17;;;;;;;55.60;7.88;;;10.00;99.90;;;;;;2101275;28;20143;-70
2021/01/29 03:25:23;;;;;;;48.63;7.18;;;10.00;99.90;;;;;;2111282;28;20026;-71
2021/01/29 03:26:31;;;;;;;64.25;7.65;;;10.00;99.90;;;;;;2119040;27;20091;-71
2021/01/29 03:27:43;;;;;;;51.13;6.93;;;10.00;99.90;;;;;;2120477;27;20046;-71
2021/01/29 03:28:50;;;;;;;55.45;8.13;;;10.00;99.90;;;;;;2113454;28;20043;-71
2021/01/29 03:30:02;;;;;;;62.17;8.25;;;10.00;99.90;;;;;;2118656;27;20114;-71
2021/01/29 03:31:04;;;;;;;55.10;7.35;;;10.00;99.90;;;;;;2112741;28;20089;-71
2021/01/29 03:32:07;;;;;;;57.95;7.38;;;10.00;99.90;;;;;;2113363;28;20023;-71
2021/01/29 03:33:11;;;;;;;58.17;7.55;;;10.00;99.90;;;;;;2112847;27;20019;-71
2021/01/29 03:34:25;;;;;;;47.15;7.30;;;10.00;99.90;;;;;;2117089;27;20003;-71
2021/01/29 03:35:30;;;;;;;53.80;6.82;;;10.00;99.90;;;;;;2113566;28;20051;-70
2021/01/29 03:36:37;;;;;;;56.95;6.78;;;10.00;99.90;;;;;;2111945;28;20047;-71
2021/01/29 03:37:40;;;;;;;55.63;6.85;;;10.00;99.90;;;;;;2113669;28;20080;-71
2021/01/29 03:39:05;;;;;;;53.95;7.07;;;10.00;99.90;;;;;;2109909;28;20023;-71
2021/01/29 03:40:07;;;;;;;59.33;7.28;;;9.90;99.90;;;;;;2107881;28;20027;-71
2021/01/29 03:41:18;;;;;;;43.72;5.68;;;9.90;99.90;;;;;;2105237;28;20032;-71
2021/01/29 03:42:42;;;;;;;65.35;7.35;;;10.00;99.90;;;;;;2116959;27;20085;-71
2021/01/29 03:44:01;;;;;;;51.10;7.13;;;10.00;99.90;;;;;;2111210;28;20813;-71
2021/01/29 03:45:22;;;;;;;47.63;8.40;;;10.00;99.90;;;;;;2105530;28;20047;-71
2021/01/29 03:46:40;;;;;;;56.30;6.80;;;10.00;99.90;;;;;;2105806;28;20531;-72
2021/01/29 03:48:04;;;;;;;48.67;5.55;;;10.00;99.90;;;;;;2112689;28;20031;-71
2021/01/29 03:49:31;;;;;;;60.20;7.47;;;10.00;99.90;;;;;;2108587;28;20059;-71
2021/01/29 03:51:16;;;;;;;59.97;6.65;;;10.00;99.90;;;;;;2074213;28;20065;-72
2021/01/29 03:52:38;;;;;;;55.67;7.70;;;10.00;99.90;;;;;;2103837;28;20024;-71
2021/01/29 03:54:00;;;;;;;52.85;7.32;;;10.00;99.90;;;;;;2107718;28;20556;-71
2021/01/29 03:55:18;;;;;;;52.13;7.55;;;10.00;99.90;;;;;;2113823;28;20024;-71
2021/01/29 03:56:38;;;;;;;48.22;6.72;;;10.00;99.90;;;;;;2111808;28;20034;-71
2021/01/29 03:57:59;;;;;;;48.92;6.35;;;10.00;99.90;;;;;;2116725;27;20026;-72
2021/01/29 03:59:04;;;;;;;56.28;6.85;;;10.00;99.90;;;;;;2118412;27;20024;-71
2021/01/29 04:00:13;;;;;;;37.83;5.57;;;10.00;99.90;;;;;;2112589;28;20588;-71
2021/01/29 04:01:46;;;;;;;44.42;6.38;;;10.10;99.90;;;;;;2105691;28;20396;-71
2021/01/29 04:03:00;;;;;;;46.33;7.13;;;10.10;99.90;;;;;;2113084;28;20042;-72
2021/01/29 04:04:38;;;;;;;43.08;6.82;;;10.10;99.90;;;;;;2112164;28;20025;-71
2021/01/29 04:06:06;;;;;;;46.15;6.05;;;10.00;99.90;;;;;;2092786;28;20115;-72
2021/01/29 04:07:22;;;;;;;46.45;6.43;;;10.00;99.90;;;;;;2104593;28;20658;-71
2021/01/29 04:09:18;;;;;;;47.78;6.22;;;10.10;99.90;;;;;;2105325;28;20073;-71
2021/01/29 04:10:23;;;;;;;58.70;6.70;;;10.00;99.90;;;;;;2078508;28;20100;-71
2021/01/29 04:11:36;;;;;;;43.63;6.03;;;10.10;99.90;;;;;;2077266;28;20080;-72
2021/01/29 04:12:45;;;;;;;39.15;5.50;;;10.10;99.90;;;;;;2113677;28;20012;-71
2021/01/29 04:13:52;;;;;;;44.55;5.97;;;10.10;99.90;;;;;;2113519;28;20083;-71
2021/01/29 04:15:17;;;;;;;36.47;5.50;;;10.10;99.90;;;;;;2113900;28;20550;-71
2021/01/29 04:16:26;;;;;;;52.05;7.65;;;10.10;99.90;;;;;;2112921;28;20024;-71
2021/01/29 04:17:32;;;;;;;42.50;5.05;;;10.00;99.90;;;;;;2099092;28;20032;-71
2021/01/29 04:18:47;;;;;;;43.00;6.68;;;10.00;99.90;;;;;;2113248;28;20060;-71
2021/01/29 04:19:53;;;;;;;39.85;5.55;;;10.10;99.90;;;;;;2105812;28;20042;-72
2021/01/29 04:21:25;;;;;;;45.55;5.88;;;10.00;99.90;;;;;;2106618;28;20032;-72
2021/01/29 04:22:31;;;;;;;37.85;6.25;;;10.00;99.90;;;;;;2111739;28;20020;-72
2021/01/29 04:23:43;;;;;;;42.28;6.20;;;10.00;99.90;;;;;;2105328;28;20561;-72
2021/01/29 04:24:53;;;;;;;34.40;5.55;;;10.10;99.90;;;;;;2109361;28;20544;-71
2021/01/29 04:26:06;;;;;;;42.35;6.20;;;10.10;99.90;;;;;;2109344;28;20028;-72
2021/01/29 04:27:16;;;;;;;41.17;5.60;;;10.00;99.90;;;;;;2105650;28;20507;-71
2021/01/29 04:28:20;;;;;;;36.88;5.70;;;10.00;99.90;;;;;;2112870;27;20072;-71
2021/01/29 04:29:28;;;;;;;49.25;6.13;;;10.10;99.90;;;;;;2112975;28;20031;-71
2021/01/29 04:30:32;;;;;;;37.88;5.00;;;10.00;99.90;;;;;;2112127;28;20107;-71
2021/01/29 04:31:35;;;;;;;42.72;6.00;;;10.00;99.90;;;;;;2110070;28;20023;-71
2021/01/29 04:32:43;;;;;;;34.03;5.13;;;10.00;99.90;;;;;;2113936;28;20020;-71
2021/01/29 04:33:49;;;;;;;49.33;7.38;;;10.00;99.90;;;;;;2106638;28;20102;-71
2021/01/29 04:34:53;;;;;;;39.03;6.05;;;10.00;99.90;;;;;;2109306;28;20019;-71
2021/01/29 04:35:58;;;;;;;49.38;6.68;;;10.00;99.90;;;;;;2110236;28;20425;-72
2021/01/29 04:37:08;;;;;;;43.55;7.35;;;10.00;99.90;;;;;;2112760;28;20057;-71
2021/01/29 04:38:11;;;;;;;37.95;6.25;;;10.00;99.90;;;;;;2110630;28;20016;-71
2021/01/29 04:39:15;;;;;;;45.17;6.45;;;9.90;99.90;;;;;;2105506;28;20020;-72
2021/01/29 04:40:29;;;;;;;45.70;5.30;;;9.90;99.90;;;;;;2106858;28;20020;-72
2021/01/29 04:41:30;;;;;;;41.17;6.72;;;9.90;99.90;;;;;;2114013;28;20100;-72
2021/01/29 04:43:21;;;;;;;34.08;4.78;;;9.90;99.90;;;;;;2111979;28;20433;-72
2021/01/29 04:44:34;;;;;;;43.63;5.20;;;9.90;99.90;;;;;;2087782;28;20133;-72
2021/01/29 04:45:54;;;;;;;45.22;6.25;;;9.90;99.90;;;;;;2112496;28;20055;-71
2021/01/29 04:47:13;;;;;;;45.72;7.28;;;9.90;99.90;;;;;;2105228;28;20028;-71
2021/01/29 04:48:46;;;;;;;44.58;6.28;;;9.90;99.90;;;;;;2111222;28;20055;-71
2021/01/29 04:49:55;;;;;;;48.30;6.90;;;9.90;99.90;;;;;;2074711;28;20038;-71
2021/01/29 04:51:19;;;;;;;39.67;5.30;;;9.90;99.90;;;;;;2069983;28;20069;-72
2021/01/29 04:52:31;;;;;;;35.90;4.68;;;10.00;99.90;;;;;;2102523;28;20032;-72
2021/01/29 04:53:47;;;;;;;50.45;5.72;;;10.00;99.90;;;;;;2113526;28;20621;-72
2021/01/29 04:55:22;;;;;;;34.50;5.63;;;10.00;99.90;;;;;;2105512;28;20508;-71
2021/01/29 04:56:34;;;;;;;40.38;5.65;;;10.00;99.90;;;;;;2105118;28;20020;-71
2021/01/29 04:58:26;;;;;;;39.45;5.30;;;10.10;99.90;;;;;;2110802;28;20031;-72
2021/01/29 04:59:52;;;;;;;34.15;5.88;;;10.10;99.90;;;;;;2095400;28;20115;-71
2021/01/29 05:01:21;;;;;;;38.40;5.90;;;10.10;99.90;;;;;;2111824;28;20020;-72
2021/01/29 05:02:57;;;;;;;37.70;5.57;;;10.10;99.90;;;;;;2112730;28;20042;-71
2021/01/29 05:04:31;;;;;;;36.35;6.18;;;10.20;99.90;;;;;;2097158;28;20082;-71
2021/01/29 05:05:35;;;;;;;34.70;5.50;;;10.20;99.90;;;;;;2089741;28;20022;-71
2021/01/29 05:07:10;;;;;;;37.38;5.70;;;10.20;99.90;;;;;;2102013;28;20028;-72
2021/01/29 05:08:32;;;;;;;40.35;5.22;;;10.20;99.90;;;;;;2108961;28;20016;-71
2021/01/29 05:09:47;;;;;;;40.72;5.78;;;10.10;99.90;;;;;;2112519;28;20526;-71
2021/01/29 05:11:07;;;;;;;40.75;6.22;;;10.20;99.90;;;;;;2111318;28;20023;-71
2021/01/29 05:12:38;;;;;;;39.63;5.25;;;10.10;99.90;;;;;;2113322;28;20497;-71
2021/01/29 05:13:57;;;;;;;39.05;6.38;;;10.10;99.90;;;;;;2117959;28;20024;-71
2021/01/29 05:15:00;;;;;;;40.33;6.07;;;10.10;99.90;;;;;;2111940;28;20716;-71
2021/01/29 05:16:24;;;;;;;43.55;6.13;;;10.00;99.90;;;;;;2119297;27;20085;-72
2021/01/29 05:17:49;;;;;;;54.45;7.43;;;10.10;99.90;;;;;;2112372;28;20023;-71
2021/01/29 05:19:26;;;;;;;52.08;6.22;;;10.10;99.90;;;;;;2104286;28;20040;-71
2021/01/29 05:20:45;;;;;;;51.35;6.00;;;10.10;99.90;;;;;;2105155;28;20030;-71
2021/01/29 05:22:24;;;;;;;38.45;5.63;;;10.10;99.90;;;;;;2109897;28;20026;-71
2021/01/29 05:24:01;;;;;;;48.60;7.00;;;10.10;99.90;;;;;;2112966;28;20028;-71
2021/01/29 05:25:02;;;;;;;38.78;5.38;;;10.10;99.90;;;;;;2112630;28;20015;-71
2021/01/29 05:26:12;;;;;;;42.55;5.63;;;10.10;99.90;;;;;;2112842;28;20601;-71
2021/01/29 05:27:49;;;;;;;44.10;7.18;;;10.10;99.90;;;;;;2110126;28;20069;-71
2021/01/29 05:29:04;;;;;;;56.22;7.15;;;10.10;99.90;;;;;;2112855;28;20028;-71
2021/01/29 05:30:07;;;;;;;45.00;6.40;;;10.10;99.90;;;;;;2114696;28;20088;-72
2021/01/29 05:31:20;;;;;;;43.58;5.75;;;10.10;99.90;;;;;;2120985;28;20114;-71
2021/01/29 05:32:56;;;;;;;52.42;8.50;;;10.00;99.90;;;;;;2105040;28;20073;-71
2021/01/29 05:34:28;;;;;;;48.50;7.35;;;10.00;99.90;;;;;;2102270;28;20091;-71
2021/01/29 05:36:11;;;;;;;52.05;6.80;;;9.90;99.90;;;;;;2105704;28;20062;-70
2021/01/29 05:37:31;;;;;;;47.55;7.65;;;9.90;99.90;;;;;;2110784;28;20027;-71
2021/01/29 05:38:43;;;;;;;43.72;6.72;;;9.80;99.90;;;;;;2112301;28;20566;-71
2021/01/29 05:40:05;;;;;;;44.17;6.53;;;9.80;99.90;;;;;;2112405;28;20038;-71
2021/01/29 05:41:43;;;;;;;60.15;7.28;;;9.80;99.90;;;;;;2105401;28;20027;-72
2021/01/29 05:43:34;;;;;;;47.80;7.20;;;9.90;99.90;;;;;;2105744;28;20506;-71
2021/01/29 05:44:41;;;;;;;46.05;5.80;;;9.90;99.90;;;;;;2071028;28;20729;-71
2021/01/29 05:46:00;;;;;;;56.83;7.22;;;9.80;99.90;;;;;;2102532;28;20446;-71
2021/01/29 05:47:35;;;;;;;59.20;7.78;;;9.80;99.90;;;;;;2113020;28;20076;-71
2021/01/29 05:49:00;;;;;;;57.40;7.45;;;9.80;99.90;;;;;;2111825;28;20042;-72
2021/01/29 05:50:21;;;;;;;58.65;7.68;;;9.70;99.90;;;;;;2099776;28;20020;-71
2021/01/29 05:51:59;;;;;;;55.08;7.57;;;9.70;99.90;;;;;;2106994;28;20024;-71
2021/01/29 05:53:14;;;;;;;61.15;9.68;;;9.60;99.90;;;;;;2108412;28;20015;-71
2021/01/29 05:54:36;;;;;;;66.57;8.65;;;9.60;99.90;;;;;;2113509;28;20387;-72
2021/01/29 05:55:40;;;;;;;67.85;9.13;;;9.60;99.90;;;;;;2109908;28;20024;-71
2021/01/29 05:56:57;;;;;;;66.13;9.77;;;9.60;99.90;;;;;;2104593;28;20122;-72
2021/01/29 05:58:34;;;;;;;71.22;9.38;;;9.50;99.90;;;;;;2112345;28;20671;-71
2021/01/29 06:00:02;;;;;;;60.10;8.88;;;9.50;99.90;;;;;;2108021;28;20077;-71
2021/01/29 06:01:11;;;;;;;92.55;11.27;;;9.50;99.90;;;;;;2119259;27;20079;-71
2021/01/29 06:03:00;;;;;;;77.65;9.98;;;9.40;99.90;;;;;;2120462;27;20019;-71
2021/01/29 06:04:07;;;;;;;75.18;9.98;;;9.40;99.90;;;;;;2106493;28;20016;-72
2021/01/29 06:05:27;;;;;;;62.78;9.88;;;9.30;99.90;;;;;;2114318;28;20035;-71
2021/01/29 06:06:44;;;;;;;64.10;8.05;;;9.30;99.90;;;;;;2114781;28;20024;-71
2021/01/29 06:08:05;;;;;;;67.63;8.52;;;9.30;99.90;;;;;;2114898;28;20030;-71
2021/01/29 06:09:15;;;;;;;57.30;8.38;;;9.40;99.90;;;;;;2112514;28;20098;-71
2021/01/29 06:10:24;;;;;;;65.82;9.50;;;9.40;99.90;;;;;;2114526;28;20048;-71